sensor_id;sensor_type;location;lat;lon;timestamp;P1;durP1;ratioP1;P2;durP2;ratioP2
982;SDS011;480;48.124;11.578;2022-10-20T00:01:25;22.57;;;13.70;;
982;SDS011;480;48.124;11.578;2022-10-20T00:03:53;23.50;;;15.73;;
982;SDS011;480;48.124;11.578;2022-10-20T00:06:21;25.10;;;17.83;;
982;SDS011;480;48.124;11.578;2022-10-20T00:08:49;23.50;;;14.97;;
982;SDS011;480;48.124;11.578;2022-10-20T00:11:18;22.17;;;14.03;;
982;SDS011;480;48.124;11.578;2022-10-20T00:13:46;24.73;;;13.67;;
982;SDS011;480;48.124;11.578;2022-10-20T00:16:15;32.00;;;17.57;;
982;SDS011;480;48.124;11.578;2022-10-20T00:18:43;31.83;;;21.57;;
982;SDS011;480;48.124;11.578;2022-10-20T00:21:12;32.00;;;24.50;;
982;SDS011;480;48.124;11.578;2022-10-20T00:23:41;29.57;;;19.33;;
982;SDS011;480;48.124;11.578;2022-10-20T00:26:10;28.20;;;19.47;;
982;SDS011;480;48.124;11.578;2022-10-20T00:28:38;25.70;;;15.57;;
982;SDS011;480;48.124;11.578;2022-10-20T00:31:05;30.30;;;16.90;;
982;SDS011;480;48.124;11.578;2022-10-20T00:33:33;29.73;;;19.03;;
982;SDS011;480;48.124;11.578;2022-10-20T00:36:03;26.80;;;17.63;;
982;SDS011;480;48.124;11.578;2022-10-20T00:38:32;27.53;;;19.50;;
982;SDS011;480;48.124;11.578;2022-10-20T00:41:00;38.63;;;23.83;;
982;SDS011;480;48.124;11.578;2022-10-20T00:43:39;33.33;;;20.27;;
982;SDS011;480;48.124;11.578;2022-10-20T00:46:09;31.70;;;18.17;;
982;SDS011;480;48.124;11.578;2022-10-20T00:48:37;28.63;;;18.33;;
982;SDS011;480;48.124;11.578;2022-10-20T00:51:07;29.33;;;19.43;;
982;SDS011;480;48.124;11.578;2022-10-20T00:53:34;29.90;;;17.77;;
982;SDS011;480;48.124;11.578;2022-10-20T00:56:01;34.93;;;22.13;;
982;SDS011;480;48.124;11.578;2022-10-20T00:58:29;38.30;;;21.03;;
982;SDS011;480;48.124;11.578;2022-10-20T01:00:59;27.00;;;16.70;;
982;SDS011;480;48.124;11.578;2022-10-20T01:03:27;32.90;;;19.27;;
982;SDS011;480;48.124;11.578;2022-10-20T01:06:00;30.90;;;20.60;;
982;SDS011;480;48.124;11.578;2022-10-20T01:08:28;28.07;;;18.40;;
982;SDS011;480;48.124;11.578;2022-10-20T01:10:58;36.30;;;22.10;;
982;SDS011;480;48.124;11.578;2022-10-20T01:13:34;27.37;;;16.37;;
982;SDS011;480;48.124;11.578;2022-10-20T01:16:08;30.47;;;18.40;;
982;SDS011;480;48.124;11.578;2022-10-20T01:18:43;32.80;;;19.57;;
982;SDS011;480;48.124;11.578;2022-10-20T01:21:24;34.83;;;19.97;;
982;SDS011;480;48.124;11.578;2022-10-20T01:30:04;28.27;;;18.23;;
982;SDS011;480;48.124;11.578;2022-10-20T01:32:51;28.40;;;18.70;;
982;SDS011;480;48.124;11.578;2022-10-20T01:35:24;36.13;;;21.47;;
982;SDS011;480;48.124;11.578;2022-10-20T01:38:03;34.60;;;21.50;;
982;SDS011;480;48.124;11.578;2022-10-20T01:40:41;31.10;;;19.57;;
982;SDS011;480;48.124;11.578;2022-10-20T01:43:12;46.37;;;21.70;;
982;SDS011;480;48.124;11.578;2022-10-20T01:45:44;32.27;;;20.80;;
982;SDS011;480;48.124;11.578;2022-10-20T01:48:13;31.20;;;18.50;;
982;SDS011;480;48.124;11.578;2022-10-20T01:50:45;34.40;;;18.67;;
982;SDS011;480;48.124;11.578;2022-10-20T01:53:13;32.90;;;18.50;;
982;SDS011;480;48.124;11.578;2022-10-20T01:55:40;30.50;;;20.43;;
982;SDS011;480;48.124;11.578;2022-10-20T02:01:08;30.40;;;20.00;;
982;SDS011;480;48.124;11.578;2022-10-20T02:03:44;29.23;;;19.70;;
982;SDS011;480;48.124;11.578;2022-10-20T02:06:22;31.93;;;20.90;;
982;SDS011;480;48.124;11.578;2022-10-20T02:08:58;29.37;;;19.43;;
982;SDS011;480;48.124;11.578;2022-10-20T02:11:29;37.90;;;20.10;;
982;SDS011;480;48.124;11.578;2022-10-20T02:14:06;27.97;;;18.03;;
982;SDS011;480;48.124;11.578;2022-10-20T02:16:37;34.20;;;20.20;;
982;SDS011;480;48.124;11.578;2022-10-20T02:19:10;38.80;;;22.43;;
982;SDS011;480;48.124;11.578;2022-10-20T02:21:39;40.80;;;23.43;;
982;SDS011;480;48.124;11.578;2022-10-20T02:24:07;31.53;;;18.97;;
982;SDS011;480;48.124;11.578;2022-10-20T02:26:35;31.97;;;18.33;;
982;SDS011;480;48.124;11.578;2022-10-20T02:29:08;32.10;;;20.50;;
982;SDS011;480;48.124;11.578;2022-10-20T02:31:38;27.53;;;18.47;;
982;SDS011;480;48.124;11.578;2022-10-20T02:34:05;34.13;;;18.07;;
982;SDS011;480;48.124;11.578;2022-10-20T02:36:35;34.93;;;22.60;;
982;SDS011;480;48.124;11.578;2022-10-20T02:39:04;28.73;;;18.90;;
982;SDS011;480;48.124;11.578;2022-10-20T02:41:32;34.53;;;18.67;;
982;SDS011;480;48.124;11.578;2022-10-20T02:43:59;34.63;;;22.00;;
982;SDS011;480;48.124;11.578;2022-10-20T02:46:28;30.57;;;18.87;;
982;SDS011;480;48.124;11.578;2022-10-20T02:48:55;32.10;;;18.40;;
982;SDS011;480;48.124;11.578;2022-10-20T02:51:21;35.03;;;21.13;;
982;SDS011;480;48.124;11.578;2022-10-20T02:53:48;34.90;;;22.27;;
982;SDS011;480;48.124;11.578;2022-10-20T02:56:15;33.07;;;20.20;;
982;SDS011;480;48.124;11.578;2022-10-20T02:58:42;37.37;;;20.40;;
982;SDS011;480;48.124;11.578;2022-10-20T03:01:09;30.50;;;20.53;;
982;SDS011;480;48.124;11.578;2022-10-20T03:03:38;33.67;;;17.90;;
982;SDS011;480;48.124;11.578;2022-10-20T03:06:06;27.93;;;17.43;;
982;SDS011;480;48.124;11.578;2022-10-20T03:08:34;29.70;;;18.13;;
982;SDS011;480;48.124;11.578;2022-10-20T03:11:01;35.20;;;20.60;;
982;SDS011;480;48.124;11.578;2022-10-20T03:13:28;34.00;;;21.00;;
982;SDS011;480;48.124;11.578;2022-10-20T03:15:55;31.90;;;17.63;;
982;SDS011;480;48.124;11.578;2022-10-20T03:18:22;28.30;;;16.90;;
982;SDS011;480;48.124;11.578;2022-10-20T03:20:51;37.10;;;18.33;;
982;SDS011;480;48.124;11.578;2022-10-20T03:23:18;26.63;;;17.80;;
982;SDS011;480;48.124;11.578;2022-10-20T03:25:46;30.00;;;17.90;;
982;SDS011;480;48.124;11.578;2022-10-20T03:28:13;29.53;;;17.00;;
982;SDS011;480;48.124;11.578;2022-10-20T03:30:40;35.90;;;18.63;;
982;SDS011;480;48.124;11.578;2022-10-20T03:33:07;35.33;;;18.03;;
982;SDS011;480;48.124;11.578;2022-10-20T03:35:34;25.67;;;18.77;;
982;SDS011;480;48.124;11.578;2022-10-20T03:38:02;29.60;;;19.77;;
982;SDS011;480;48.124;11.578;2022-10-20T03:40:29;25.10;;;19.00;;
982;SDS011;480;48.124;11.578;2022-10-20T03:42:56;28.27;;;16.23;;
982;SDS011;480;48.124;11.578;2022-10-20T03:45:23;35.50;;;19.33;;
982;SDS011;480;48.124;11.578;2022-10-20T03:47:50;31.10;;;19.20;;
982;SDS011;480;48.124;11.578;2022-10-20T03:50:17;28.90;;;15.30;;
982;SDS011;480;48.124;11.578;2022-10-20T03:52:46;21.07;;;15.10;;
982;SDS011;480;48.124;11.578;2022-10-20T03:55:15;27.33;;;17.83;;
982;SDS011;480;48.124;11.578;2022-10-20T03:57:43;28.60;;;17.47;;
982;SDS011;480;48.124;11.578;2022-10-20T04:00:11;25.47;;;15.37;;
982;SDS011;480;48.124;11.578;2022-10-20T04:02:39;24.70;;;16.07;;
982;SDS011;480;48.124;11.578;2022-10-20T04:05:09;26.20;;;19.07;;
982;SDS011;480;48.124;11.578;2022-10-20T04:07:37;24.80;;;14.87;;
982;SDS011;480;48.124;11.578;2022-10-20T04:10:04;24.40;;;16.60;;
982;SDS011;480;48.124;11.578;2022-10-20T04:12:33;27.30;;;19.13;;
982;SDS011;480;48.124;11.578;2022-10-20T04:15:01;24.90;;;14.90;;
982;SDS011;480;48.124;11.578;2022-10-20T04:17:28;26.80;;;16.03;;
982;SDS011;480;48.124;11.578;2022-10-20T04:19:56;25.17;;;17.40;;
982;SDS011;480;48.124;11.578;2022-10-20T04:22:23;30.20;;;16.33;;
982;SDS011;480;48.124;11.578;2022-10-20T04:24:50;27.87;;;17.97;;
982;SDS011;480;48.124;11.578;2022-10-20T04:27:17;28.73;;;17.00;;
982;SDS011;480;48.124;11.578;2022-10-20T04:29:46;20.93;;;14.20;;
982;SDS011;480;48.124;11.578;2022-10-20T04:32:13;30.73;;;17.57;;
982;SDS011;480;48.124;11.578;2022-10-20T04:34:40;25.87;;;14.43;;
982;SDS011;480;48.124;11.578;2022-10-20T04:37:07;24.43;;;15.57;;
982;SDS011;480;48.124;11.578;2022-10-20T04:39:34;29.07;;;18.40;;
982;SDS011;480;48.124;11.578;2022-10-20T04:42:01;26.93;;;15.27;;
982;SDS011;480;48.124;11.578;2022-10-20T04:44:28;25.30;;;16.27;;
982;SDS011;480;48.124;11.578;2022-10-20T04:46:57;22.37;;;15.97;;
982;SDS011;480;48.124;11.578;2022-10-20T04:49:24;32.30;;;16.70;;
982;SDS011;480;48.124;11.578;2022-10-20T04:51:51;28.83;;;15.23;;
982;SDS011;480;48.124;11.578;2022-10-20T04:54:18;24.67;;;15.53;;
982;SDS011;480;48.124;11.578;2022-10-20T04:56:45;26.50;;;15.27;;
982;SDS011;480;48.124;11.578;2022-10-20T04:59:12;29.30;;;15.20;;
982;SDS011;480;48.124;11.578;2022-10-20T05:01:39;24.03;;;14.93;;
982;SDS011;480;48.124;11.578;2022-10-20T05:04:07;22.03;;;16.97;;
982;SDS011;480;48.124;11.578;2022-10-20T05:06:34;22.70;;;14.37;;
982;SDS011;480;48.124;11.578;2022-10-20T05:09:02;25.13;;;16.50;;
982;SDS011;480;48.124;11.578;2022-10-20T05:11:33;21.33;;;14.03;;
982;SDS011;480;48.124;11.578;2022-10-20T05:14:02;24.83;;;16.87;;
982;SDS011;480;48.124;11.578;2022-10-20T05:16:29;25.47;;;15.30;;
982;SDS011;480;48.124;11.578;2022-10-20T05:18:56;33.20;;;17.43;;
982;SDS011;480;48.124;11.578;2022-10-20T05:21:25;23.23;;;15.20;;
982;SDS011;480;48.124;11.578;2022-10-20T05:23:53;29.40;;;16.57;;
982;SDS011;480;48.124;11.578;2022-10-20T05:26:21;25.20;;;17.20;;
982;SDS011;480;48.124;11.578;2022-10-20T05:28:49;21.60;;;16.13;;
982;SDS011;480;48.124;11.578;2022-10-20T05:31:20;32.40;;;15.57;;
982;SDS011;480;48.124;11.578;2022-10-20T05:33:48;23.33;;;15.37;;
982;SDS011;480;48.124;11.578;2022-10-20T05:36:17;32.27;;;17.80;;
982;SDS011;480;48.124;11.578;2022-10-20T05:38:47;24.53;;;14.80;;
982;SDS011;480;48.124;11.578;2022-10-20T05:41:15;22.70;;;15.77;;
982;SDS011;480;48.124;11.578;2022-10-20T05:43:46;24.83;;;15.60;;
982;SDS011;480;48.124;11.578;2022-10-20T05:46:13;26.50;;;16.20;;
982;SDS011;480;48.124;11.578;2022-10-20T05:48:40;29.80;;;16.57;;
982;SDS011;480;48.124;11.578;2022-10-20T05:51:08;22.57;;;15.57;;
982;SDS011;480;48.124;11.578;2022-10-20T05:53:35;28.13;;;17.40;;
982;SDS011;480;48.124;11.578;2022-10-20T05:56:06;29.10;;;16.87;;
982;SDS011;480;48.124;11.578;2022-10-20T05:58:35;29.37;;;17.10;;
982;SDS011;480;48.124;11.578;2022-10-20T06:01:03;30.20;;;17.33;;
982;SDS011;480;48.124;11.578;2022-10-20T06:03:32;30.47;;;18.33;;
982;SDS011;480;48.124;11.578;2022-10-20T06:05:59;29.57;;;17.13;;
982;SDS011;480;48.124;11.578;2022-10-20T06:08:29;32.27;;;17.77;;
982;SDS011;480;48.124;11.578;2022-10-20T06:11:00;31.50;;;16.97;;
982;SDS011;480;48.124;11.578;2022-10-20T06:13:30;33.20;;;18.30;;
982;SDS011;480;48.124;11.578;2022-10-20T06:16:01;26.23;;;16.10;;
982;SDS011;480;48.124;11.578;2022-10-20T06:18:30;30.17;;;17.40;;
982;SDS011;480;48.124;11.578;2022-10-20T06:20:58;25.33;;;17.40;;
982;SDS011;480;48.124;11.578;2022-10-20T06:23:26;22.73;;;15.37;;
982;SDS011;480;48.124;11.578;2022-10-20T06:25:53;27.37;;;16.27;;
982;SDS011;480;48.124;11.578;2022-10-20T06:28:20;33.57;;;17.47;;
982;SDS011;480;48.124;11.578;2022-10-20T06:30:48;27.73;;;15.70;;
982;SDS011;480;48.124;11.578;2022-10-20T06:33:15;29.43;;;18.77;;
982;SDS011;480;48.124;11.578;2022-10-20T06:35:42;23.47;;;16.30;;
982;SDS011;480;48.124;11.578;2022-10-20T06:38:09;31.33;;;17.20;;
982;SDS011;480;48.124;11.578;2022-10-20T06:40:36;26.63;;;15.30;;
982;SDS011;480;48.124;11.578;2022-10-20T06:43:03;28.00;;;18.60;;
982;SDS011;480;48.124;11.578;2022-10-20T06:45:30;28.67;;;19.50;;
982;SDS011;480;48.124;11.578;2022-10-20T06:47:59;27.87;;;16.17;;
982;SDS011;480;48.124;11.578;2022-10-20T06:50:26;26.80;;;15.90;;
982;SDS011;480;48.124;11.578;2022-10-20T06:52:53;29.63;;;15.67;;
982;SDS011;480;48.124;11.578;2022-10-20T06:55:19;28.90;;;16.53;;
982;SDS011;480;48.124;11.578;2022-10-20T06:57:46;30.50;;;18.50;;
982;SDS011;480;48.124;11.578;2022-10-20T07:00:13;24.60;;;17.03;;
982;SDS011;480;48.124;11.578;2022-10-20T07:02:40;19.67;;;14.47;;
982;SDS011;480;48.124;11.578;2022-10-20T07:05:09;20.57;;;15.37;;
982;SDS011;480;48.124;11.578;2022-10-20T07:07:36;25.37;;;18.17;;
982;SDS011;480;48.124;11.578;2022-10-20T07:10:03;21.30;;;13.40;;
982;SDS011;480;48.124;11.578;2022-10-20T07:12:30;27.70;;;14.37;;
982;SDS011;480;48.124;11.578;2022-10-20T07:14:57;27.50;;;15.97;;
982;SDS011;480;48.124;11.578;2022-10-20T07:17:24;28.63;;;16.40;;
982;SDS011;480;48.124;11.578;2022-10-20T07:19:51;26.57;;;14.83;;
982;SDS011;480;48.124;11.578;2022-10-20T07:22:19;22.53;;;13.00;;
982;SDS011;480;48.124;11.578;2022-10-20T07:24:46;27.83;;;16.40;;
982;SDS011;480;48.124;11.578;2022-10-20T07:27:13;22.30;;;13.20;;
982;SDS011;480;48.124;11.578;2022-10-20T07:29:40;24.20;;;16.83;;
982;SDS011;480;48.124;11.578;2022-10-20T07:32:07;23.90;;;13.47;;
982;SDS011;480;48.124;11.578;2022-10-20T07:34:34;19.77;;;12.80;;
982;SDS011;480;48.124;11.578;2022-10-20T07:37:01;20.47;;;13.60;;
982;SDS011;480;48.124;11.578;2022-10-20T07:39:29;20.47;;;12.53;;
982;SDS011;480;48.124;11.578;2022-10-20T07:41:56;23.90;;;15.13;;
982;SDS011;480;48.124;11.578;2022-10-20T07:44:23;23.57;;;13.30;;
982;SDS011;480;48.124;11.578;2022-10-20T07:46:50;19.97;;;14.00;;
982;SDS011;480;48.124;11.578;2022-10-20T07:49:17;18.50;;;14.97;;
982;SDS011;480;48.124;11.578;2022-10-20T07:51:44;26.70;;;15.13;;
982;SDS011;480;48.124;11.578;2022-10-20T07:54:11;22.20;;;14.23;;
982;SDS011;480;48.124;11.578;2022-10-20T07:56:42;20.10;;;13.73;;
982;SDS011;480;48.124;11.578;2022-10-20T07:59:10;23.20;;;13.70;;
982;SDS011;480;48.124;11.578;2022-10-20T08:01:37;17.60;;;12.00;;
982;SDS011;480;48.124;11.578;2022-10-20T08:04:04;18.90;;;12.17;;
982;SDS011;480;48.124;11.578;2022-10-20T08:06:34;17.90;;;12.57;;
982;SDS011;480;48.124;11.578;2022-10-20T08:09:01;19.80;;;14.70;;
982;SDS011;480;48.124;11.578;2022-10-20T08:11:28;18.73;;;13.50;;
982;SDS011;480;48.124;11.578;2022-10-20T08:13:57;19.90;;;13.30;;
982;SDS011;480;48.124;11.578;2022-10-20T08:16:24;24.17;;;15.60;;
982;SDS011;480;48.124;11.578;2022-10-20T08:18:51;22.37;;;14.87;;
982;SDS011;480;48.124;11.578;2022-10-20T08:21:18;23.73;;;12.80;;
982;SDS011;480;48.124;11.578;2022-10-20T08:23:47;21.10;;;12.80;;
982;SDS011;480;48.124;11.578;2022-10-20T08:26:16;22.20;;;15.03;;
982;SDS011;480;48.124;11.578;2022-10-20T08:28:44;18.47;;;13.07;;
982;SDS011;480;48.124;11.578;2022-10-20T08:31:12;21.80;;;14.60;;
982;SDS011;480;48.124;11.578;2022-10-20T08:33:40;19.60;;;13.67;;
982;SDS011;480;48.124;11.578;2022-10-20T08:36:08;21.53;;;14.87;;
982;SDS011;480;48.124;11.578;2022-10-20T08:38:36;25.03;;;13.90;;
982;SDS011;480;48.124;11.578;2022-10-20T08:41:05;20.37;;;12.50;;
982;SDS011;480;48.124;11.578;2022-10-20T08:43:38;16.53;;;13.10;;
982;SDS011;480;48.124;11.578;2022-10-20T08:46:08;19.10;;;10.67;;
982;SDS011;480;48.124;11.578;2022-10-20T08:48:39;21.63;;;13.80;;
982;SDS011;480;48.124;11.578;2022-10-20T08:51:09;16.30;;;12.77;;
982;SDS011;480;48.124;11.578;2022-10-20T08:53:41;19.97;;;12.67;;
982;SDS011;480;48.124;11.578;2022-10-20T08:56:09;18.73;;;11.40;;
982;SDS011;480;48.124;11.578;2022-10-20T08:58:40;21.60;;;10.47;;
982;SDS011;480;48.124;11.578;2022-10-20T09:01:13;16.10;;;11.20;;
982;SDS011;480;48.124;11.578;2022-10-20T09:03:46;15.67;;;10.07;;
982;SDS011;480;48.124;11.578;2022-10-20T09:06:17;21.13;;;11.30;;
982;SDS011;480;48.124;11.578;2022-10-20T09:08:44;13.53;;;10.37;;
982;SDS011;480;48.124;11.578;2022-10-20T09:11:13;14.13;;;9.57;;
982;SDS011;480;48.124;11.578;2022-10-20T09:13:41;18.33;;;11.17;;
982;SDS011;480;48.124;11.578;2022-10-20T09:16:11;14.60;;;10.50;;
982;SDS011;480;48.124;11.578;2022-10-20T09:18:42;14.50;;;11.23;;
982;SDS011;480;48.124;11.578;2022-10-20T09:21:11;14.80;;;9.93;;
982;SDS011;480;48.124;11.578;2022-10-20T09:23:42;12.47;;;9.63;;
982;SDS011;480;48.124;11.578;2022-10-20T09:26:12;13.13;;;10.63;;
982;SDS011;480;48.124;11.578;2022-10-20T09:28:39;16.50;;;10.47;;
982;SDS011;480;48.124;11.578;2022-10-20T09:31:18;14.53;;;10.27;;
982;SDS011;480;48.124;11.578;2022-10-20T09:33:48;15.30;;;11.60;;
982;SDS011;480;48.124;11.578;2022-10-20T09:36:16;12.33;;;9.97;;
982;SDS011;480;48.124;11.578;2022-10-20T09:38:45;13.30;;;9.63;;
982;SDS011;480;48.124;11.578;2022-10-20T09:41:15;13.70;;;11.40;;
982;SDS011;480;48.124;11.578;2022-10-20T09:43:47;11.70;;;8.90;;
982;SDS011;480;48.124;11.578;2022-10-20T09:46:18;14.83;;;10.07;;
982;SDS011;480;48.124;11.578;2022-10-20T09:48:49;12.30;;;10.80;;
982;SDS011;480;48.124;11.578;2022-10-20T09:51:17;13.30;;;8.60;;
982;SDS011;480;48.124;11.578;2022-10-20T09:53:52;13.07;;;9.33;;
982;SDS011;480;48.124;11.578;2022-10-20T09:56:26;11.60;;;9.63;;
982;SDS011;480;48.124;11.578;2022-10-20T09:58:55;15.20;;;10.20;;
982;SDS011;480;48.124;11.578;2022-10-20T10:01:24;9.77;;;8.77;;
982;SDS011;480;48.124;11.578;2022-10-20T10:03:53;15.23;;;8.70;;
982;SDS011;480;48.124;11.578;2022-10-20T10:06:27;13.13;;;11.33;;
982;SDS011;480;48.124;11.578;2022-10-20T10:08:56;16.83;;;11.30;;
982;SDS011;480;48.124;11.578;2022-10-20T10:11:26;12.73;;;8.43;;
982;SDS011;480;48.124;11.578;2022-10-20T10:13:58;12.73;;;8.97;;
982;SDS011;480;48.124;11.578;2022-10-20T10:16:26;9.43;;;8.33;;
982;SDS011;480;48.124;11.578;2022-10-20T10:18:56;9.53;;;7.77;;
982;SDS011;480;48.124;11.578;2022-10-20T10:21:26;10.60;;;9.50;;
982;SDS011;480;48.124;11.578;2022-10-20T10:23:54;8.97;;;7.80;;
982;SDS011;480;48.124;11.578;2022-10-20T10:26:43;9.23;;;8.33;;
982;SDS011;480;48.124;11.578;2022-10-20T10:29:20;7.27;;;6.57;;
982;SDS011;480;48.124;11.578;2022-10-20T10:31:51;10.47;;;7.63;;
982;SDS011;480;48.124;11.578;2022-10-20T10:34:31;8.73;;;7.83;;
982;SDS011;480;48.124;11.578;2022-10-20T10:37:04;10.27;;;9.20;;
982;SDS011;480;48.124;11.578;2022-10-20T10:39:34;10.83;;;7.53;;
982;SDS011;480;48.124;11.578;2022-10-20T10:42:09;10.70;;;7.80;;
982;SDS011;480;48.124;11.578;2022-10-20T10:45:03;9.47;;;8.43;;
982;SDS011;480;48.124;11.578;2022-10-20T10:47:45;9.10;;;8.03;;
982;SDS011;480;48.124;11.578;2022-10-20T10:50:32;9.70;;;7.87;;
982;SDS011;480;48.124;11.578;2022-10-20T10:53:10;9.57;;;7.47;;
982;SDS011;480;48.124;11.578;2022-10-20T10:55:55;7.83;;;7.10;;
982;SDS011;480;48.124;11.578;2022-10-20T10:59:01;11.17;;;6.60;;
982;SDS011;480;48.124;11.578;2022-10-20T11:02:04;7.73;;;6.97;;
982;SDS011;480;48.124;11.578;2022-10-20T11:07:48;8.73;;;7.33;;
982;SDS011;480;48.124;11.578;2022-10-20T11:10:25;9.87;;;6.80;;
982;SDS011;480;48.124;11.578;2022-10-20T11:13:01;8.90;;;7.03;;
982;SDS011;480;48.124;11.578;2022-10-20T11:15:44;7.80;;;6.70;;
982;SDS011;480;48.124;11.578;2022-10-20T11:18:24;8.50;;;7.00;;
982;SDS011;480;48.124;11.578;2022-10-20T11:21:13;7.50;;;6.80;;
982;SDS011;480;48.124;11.578;2022-10-20T11:23:53;7.67;;;6.87;;
982;SDS011;480;48.124;11.578;2022-10-20T11:26:40;6.70;;;6.10;;
982;SDS011;480;48.124;11.578;2022-10-20T11:29:10;8.13;;;7.10;;
982;SDS011;480;48.124;11.578;2022-10-20T11:31:43;6.43;;;5.83;;
982;SDS011;480;48.124;11.578;2022-10-20T11:34:17;8.80;;;6.90;;
982;SDS011;480;48.124;11.578;2022-10-20T11:36:52;10.93;;;6.47;;
982;SDS011;480;48.124;11.578;2022-10-20T11:39:29;6.23;;;5.63;;
982;SDS011;480;48.124;11.578;2022-10-20T11:42:04;5.83;;;5.30;;
982;SDS011;480;48.124;11.578;2022-10-20T11:44:43;6.10;;;5.50;;
982;SDS011;480;48.124;11.578;2022-10-20T11:47:13;9.20;;;5.63;;
982;SDS011;480;48.124;11.578;2022-10-20T11:49:44;7.00;;;6.30;;
982;SDS011;480;48.124;11.578;2022-10-20T11:52:26;10.30;;;5.67;;
982;SDS011;480;48.124;11.578;2022-10-20T11:55:35;6.60;;;6.00;;
982;SDS011;480;48.124;11.578;2022-10-20T11:58:18;8.70;;;5.90;;
982;SDS011;480;48.124;11.578;2022-10-20T12:03:58;6.00;;;5.40;;
982;SDS011;480;48.124;11.578;2022-10-20T12:09:55;7.93;;;5.70;;
982;SDS011;480;48.124;11.578;2022-10-20T12:12:42;6.30;;;5.80;;
982;SDS011;480;48.124;11.578;2022-10-20T12:15:19;5.50;;;5.07;;
982;SDS011;480;48.124;11.578;2022-10-20T12:17:49;6.93;;;4.70;;
982;SDS011;480;48.124;11.578;2022-10-20T12:38:21;5.83;;;4.30;;
982;SDS011;480;48.124;11.578;2022-10-20T12:40:50;5.87;;;4.57;;
982;SDS011;480;48.124;11.578;2022-10-20T12:43:23;7.73;;;4.53;;
982;SDS011;480;48.124;11.578;2022-10-20T12:46:02;4.80;;;4.00;;
982;SDS011;480;48.124;11.578;2022-10-20T12:48:33;6.67;;;5.20;;
982;SDS011;480;48.124;11.578;2022-10-20T12:51:06;5.20;;;4.57;;
982;SDS011;480;48.124;11.578;2022-10-20T12:53:40;5.20;;;4.03;;
982;SDS011;480;48.124;11.578;2022-10-20T12:56:09;7.23;;;4.77;;
982;SDS011;480;48.124;11.578;2022-10-20T12:59:05;3.87;;;3.57;;
982;SDS011;480;48.124;11.578;2022-10-20T13:04:57;4.60;;;4.00;;
982;SDS011;480;48.124;11.578;2022-10-20T13:10:29;6.17;;;5.00;;
982;SDS011;480;48.124;11.578;2022-10-20T13:16:12;4.70;;;4.20;;
982;SDS011;480;48.124;11.578;2022-10-20T13:18:51;5.07;;;4.00;;
982;SDS011;480;48.124;11.578;2022-10-20T13:21:21;5.40;;;4.90;;
982;SDS011;480;48.124;11.578;2022-10-20T13:23:56;7.13;;;4.80;;
982;SDS011;480;48.124;11.578;2022-10-20T13:26:46;6.87;;;4.93;;
982;SDS011;480;48.124;11.578;2022-10-20T13:29:17;5.57;;;4.67;;
982;SDS011;480;48.124;11.578;2022-10-20T13:31:50;6.17;;;5.50;;
982;SDS011;480;48.124;11.578;2022-10-20T13:34:29;5.40;;;5.00;;
982;SDS011;480;48.124;11.578;2022-10-20T13:37:07;6.10;;;5.33;;
982;SDS011;480;48.124;11.578;2022-10-20T13:39:46;4.30;;;3.83;;
982;SDS011;480;48.124;11.578;2022-10-20T13:42:25;5.30;;;4.80;;
982;SDS011;480;48.124;11.578;2022-10-20T13:45:05;8.83;;;5.20;;
982;SDS011;480;48.124;11.578;2022-10-20T13:47:49;5.17;;;4.77;;
982;SDS011;480;48.124;11.578;2022-10-20T13:50:26;8.97;;;5.10;;
982;SDS011;480;48.124;11.578;2022-10-20T13:52:56;6.23;;;5.50;;
982;SDS011;480;48.124;11.578;2022-10-20T13:55:26;4.90;;;4.20;;
982;SDS011;480;48.124;11.578;2022-10-20T13:57:56;11.83;;;5.23;;
982;SDS011;480;48.124;11.578;2022-10-20T14:00:25;6.40;;;4.70;;
982;SDS011;480;48.124;11.578;2022-10-20T14:02:55;6.57;;;5.33;;
982;SDS011;480;48.124;11.578;2022-10-20T14:05:25;9.30;;;4.77;;
982;SDS011;480;48.124;11.578;2022-10-20T14:07:53;8.20;;;5.37;;
982;SDS011;480;48.124;11.578;2022-10-20T14:10:23;6.10;;;5.40;;
982;SDS011;480;48.124;11.578;2022-10-20T14:12:53;5.23;;;4.67;;
982;SDS011;480;48.124;11.578;2022-10-20T14:15:28;6.87;;;5.67;;
982;SDS011;480;48.124;11.578;2022-10-20T14:17:59;6.27;;;5.07;;
982;SDS011;480;48.124;11.578;2022-10-20T14:20:29;5.90;;;5.00;;
982;SDS011;480;48.124;11.578;2022-10-20T14:22:57;6.50;;;5.90;;
982;SDS011;480;48.124;11.578;2022-10-20T14:25:27;5.53;;;4.90;;
982;SDS011;480;48.124;11.578;2022-10-20T14:27:56;7.20;;;5.60;;
982;SDS011;480;48.124;11.578;2022-10-20T14:30:23;7.70;;;5.80;;
982;SDS011;480;48.124;11.578;2022-10-20T14:32:51;5.53;;;5.00;;
982;SDS011;480;48.124;11.578;2022-10-20T14:35:28;6.07;;;5.50;;
982;SDS011;480;48.124;11.578;2022-10-20T14:37:59;10.10;;;7.13;;
982;SDS011;480;48.124;11.578;2022-10-20T14:40:29;6.57;;;6.00;;
982;SDS011;480;48.124;11.578;2022-10-20T14:43:00;5.90;;;5.30;;
982;SDS011;480;48.124;11.578;2022-10-20T14:45:29;6.23;;;5.63;;
982;SDS011;480;48.124;11.578;2022-10-20T14:47:57;6.30;;;5.70;;
982;SDS011;480;48.124;11.578;2022-10-20T14:50:30;9.63;;;6.40;;
982;SDS011;480;48.124;11.578;2022-10-20T14:53:26;6.20;;;5.60;;
982;SDS011;480;48.124;11.578;2022-10-20T14:55:56;7.73;;;6.93;;
982;SDS011;480;48.124;11.578;2022-10-20T14:58:31;6.20;;;5.40;;
982;SDS011;480;48.124;11.578;2022-10-20T15:04:05;6.13;;;5.53;;
982;SDS011;480;48.124;11.578;2022-10-20T15:06:41;7.30;;;6.40;;
982;SDS011;480;48.124;11.578;2022-10-20T15:09:14;9.67;;;6.17;;
982;SDS011;480;48.124;11.578;2022-10-20T15:11:45;8.60;;;6.90;;
982;SDS011;480;48.124;11.578;2022-10-20T15:14:13;7.13;;;6.43;;
982;SDS011;480;48.124;11.578;2022-10-20T15:16:42;7.40;;;6.57;;
982;SDS011;480;48.124;11.578;2022-10-20T15:19:12;9.23;;;6.43;;
982;SDS011;480;48.124;11.578;2022-10-20T15:22:00;10.03;;;7.17;;
982;SDS011;480;48.124;11.578;2022-10-20T15:24:35;9.53;;;6.47;;
982;SDS011;480;48.124;11.578;2022-10-20T15:27:03;7.63;;;6.83;;
982;SDS011;480;48.124;11.578;2022-10-20T15:29:31;11.17;;;6.20;;
982;SDS011;480;48.124;11.578;2022-10-20T15:31:59;7.60;;;6.67;;
982;SDS011;480;48.124;11.578;2022-10-20T15:34:26;10.63;;;7.23;;
982;SDS011;480;48.124;11.578;2022-10-20T15:36:53;8.50;;;6.50;;
982;SDS011;480;48.124;11.578;2022-10-20T15:39:21;6.93;;;6.27;;
982;SDS011;480;48.124;11.578;2022-10-20T15:41:48;9.87;;;7.13;;
982;SDS011;480;48.124;11.578;2022-10-20T15:44:16;9.47;;;7.03;;
982;SDS011;480;48.124;11.578;2022-10-20T15:46:46;7.57;;;6.87;;
982;SDS011;480;48.124;11.578;2022-10-20T15:49:14;6.63;;;6.13;;
982;SDS011;480;48.124;11.578;2022-10-20T15:51:43;7.60;;;6.80;;
982;SDS011;480;48.124;11.578;2022-10-20T15:54:11;10.27;;;7.70;;
982;SDS011;480;48.124;11.578;2022-10-20T15:56:41;8.10;;;7.30;;
982;SDS011;480;48.124;11.578;2022-10-20T15:59:08;10.47;;;7.17;;
982;SDS011;480;48.124;11.578;2022-10-20T16:01:35;9.47;;;7.20;;
982;SDS011;480;48.124;11.578;2022-10-20T16:04:05;9.00;;;8.20;;
982;SDS011;480;48.124;11.578;2022-10-20T16:06:42;8.87;;;6.90;;
982;SDS011;480;48.124;11.578;2022-10-20T16:09:09;7.03;;;6.33;;
982;SDS011;480;48.124;11.578;2022-10-20T16:11:36;9.87;;;7.10;;
982;SDS011;480;48.124;11.578;2022-10-20T16:14:05;7.57;;;6.80;;
982;SDS011;480;48.124;11.578;2022-10-20T16:16:32;7.90;;;7.10;;
982;SDS011;480;48.124;11.578;2022-10-20T16:18:59;10.37;;;6.53;;
982;SDS011;480;48.124;11.578;2022-10-20T16:21:26;7.47;;;6.70;;